^^
Grace C. Lehan Memorial Weather Station Historical Data
Daily Summary for July 16, 2021 Units:  Both    English   Metric
Daily Weekly Monthly Yearly
  High: Low: Average:
Temperature: 33.8 °F /  1 °C 31.6 °F /  -0.2 °C 32.5 °F /  0.3 °C
Dew Point: 32.5 °F /  0.3 °C 30.1 °F /  -1.1 °C 31.1 °F /  -0.5 °C
Humidity: 95% 94% 95%
Wind Speed: 2.1mph /  3.4km/h - 0.5mph /  0.8km/h
Wind Gust: 5mph /  8km/h - -
Wind- - SSE
Pressure: 30.02 in /  1016.5 hPa 29.74 in /  1007 hPa -
Precipitation: 0.09 in /  2.29 mm    
 
 
Tabular Data for July 16, 2021
Time Temperature Dew Point Pressure Wind Wind Speed Wind Gust Humidity Rainfall Rate (Hourly) solar
00:04 31.6 °F /  -0.2 °C 30.1 °F /  -1.1 °C 30.02in /  1016.5hPa NE 0.3mph /  0.5km/h 4mph /  6.4km/h 94% 0.00in /  0mm 0 W/m2
00:09 31.7 °F /  -0.2 °C 30.2 °F /  -1 °C 30.02in /  1016.5hPa NE 0.4mph /  0.6km/h 3mph /  4.8km/h 94% 0.00in /  0mm 0 W/m2
00:14 31.7 °F /  -0.2 °C 30.2 °F /  -1 °C 30.01in /  1016.1hPa NNE 0.7mph /  1.1km/h 5mph /  8km/h 94% 0.00in /  0mm 0 W/m2
00:19 31.7 °F /  -0.2 °C 30.2 °F /  -1 °C 30.00in /  1015.8hPa NNE 0.8mph /  1.3km/h 5mph /  8km/h 94% 0.00in /  0mm 0 W/m2
00:24 31.8 °F /  -0.1 °C 30.3 °F /  -0.9 °C 30.00in /  1015.8hPa NNE 1mph /  1.6km/h 5mph /  8km/h 94% 0.00in /  0mm 0 W/m2
00:29 31.8 °F /  -0.1 °C 30.3 °F /  -0.9 °C 30.00in /  1015.8hPa NNE 0.3mph /  0.5km/h 5mph /  8km/h 94% 0.00in /  0mm 0 W/m2
00:34 31.8 °F /  -0.1 °C 30.2 °F /  -1 °C 30.00in /  1015.8hPa Calm   5mph /  8km/h 94% 0.00in /  0mm 0 W/m2
00:39 31.7 °F /  -0.2 °C 30.2 °F /  -1 °C 30.00in /  1015.8hPa Calm     94% 0.00in /  0mm 0 W/m2
00:44 31.7 °F /  -0.2 °C 30.2 °F /  -1 °C 29.99in /  1015.5hPa Calm     94% 0.00in /  0mm 0 W/m2
00:49 31.7 °F /  -0.2 °C 30.2 °F /  -1 °C 29.99in /  1015.5hPa Calm     94% 0.00in /  0mm 0 W/m2
00:54 31.7 °F /  -0.2 °C 30.2 °F /  -1 °C 29.99in /  1015.5hPa Calm     94% 0.00in /  0mm 0 W/m2
00:59 31.8 °F /  -0.1 °C 30.2 °F /  -1 °C 29.99in /  1015.5hPa NNE 0.1mph /  0.2km/h 3mph /  4.8km/h 94% 0.00in /  0mm 0 W/m2
01:04 31.8 °F /  -0.1 °C 30.3 °F /  -0.9 °C 29.99in /  1015.5hPa Calm   3mph /  4.8km/h 94% 0.00in /  0mm 0 W/m2
01:09 31.8 °F /  -0.1 °C 30.3 °F /  -0.9 °C 29.98in /  1015.1hPa NNE 0.2mph /  0.3km/h 3mph /  4.8km/h 94% 0.00in /  0mm 0 W/m2
01:14 31.8 °F /  -0.1 °C 30.3 °F /  -0.9 °C 29.98in /  1015.1hPa NNE 0.2mph /  0.3km/h 3mph /  4.8km/h 94% 0.00in /  0mm 0 W/m2
01:19 31.9 °F /  -0.1 °C 30.4 °F /  -0.9 °C 29.96in /  1014.4hPa NNE 0.1mph /  0.2km/h 3mph /  4.8km/h 94% 0.00in /  0mm 0 W/m2
01:24 31.9 °F /  -0.1 °C 30.4 °F /  -0.9 °C 29.96in /  1014.4hPa NNE 1mph /  1.6km/h 4mph /  6.4km/h 94% 0.00in /  0mm 0 W/m2
01:29 32 °F /  0 °C 30.5 °F /  -0.8 °C 29.95in /  1014.1hPa NE 0.6mph /  1km/h 4mph /  6.4km/h 94% 0.00in /  0mm 0 W/m2
01:34 32 °F /  0 °C 30.5 °F /  -0.8 °C 29.95in /  1014.1hPa NE 0.4mph /  0.6km/h 4mph /  6.4km/h 94% 0.00in /  0mm 0 W/m2
01:39 32 °F /  0 °C 30.5 °F /  -0.8 °C 29.95in /  1014.1hPa Calm   3mph /  4.8km/h 94% 0.00in /  0mm 0 W/m2
01:44 32 °F /  0 °C 30.6 °F /  -0.8 °C 29.95in /  1014.1hPa NE 0.7mph /  1.1km/h 3mph /  4.8km/h 94.5% 0.00in /  0mm 0 W/m2
01:49 32 °F /  0 °C 30.7 °F /  -0.7 °C 29.94in /  1013.8hPa NNE 0.3mph /  0.5km/h 3mph /  4.8km/h 95% 0.00in /  0mm 0 W/m2
01:54 32.1 °F /  0.1 °C 30.8 °F /  -0.7 °C 29.94in /  1013.8hPa NNE 0.5mph /  0.8km/h 4mph /  6.4km/h 94.9% 0.00in /  0mm 0 W/m2
01:59 32.1 °F /  0.1 °C 30.6 °F /  -0.8 °C 29.93in /  1013.4hPa NNE 0.1mph /  0.2km/h 4mph /  6.4km/h 94.2% 0.00in /  0mm 0 W/m2
02:04 32.1 °F /  0.1 °C 30.6 °F /  -0.8 °C 29.93in /  1013.4hPa NNE 0.3mph /  0.5km/h 4mph /  6.4km/h 94.1% 0.00in /  0mm 0 W/m2
02:09 32.1 °F /  0.1 °C 30.7 °F /  -0.7 °C 29.92in /  1013.1hPa NNE 0.7mph /  1.1km/h 3mph /  4.8km/h 94.6% 0.00in /  0mm 0 W/m2
02:14 32.1 °F /  0.1 °C 30.8 °F /  -0.7 °C 29.92in /  1013.1hPa Calm   3mph /  4.8km/h 95% 0.00in /  0mm 0 W/m2
02:19 32.2 °F /  0.1 °C 30.9 °F /  -0.6 °C 29.91in /  1012.8hPa NNE 1.2mph /  1.9km/h 5mph /  8km/h 95% 0.00in /  0mm 0 W/m2
02:24 32.2 °F /  0.1 °C 30.9 °F /  -0.6 °C 29.90in /  1012.4hPa NNE 1.7mph /  2.7km/h 5mph /  8km/h 95% 0.00in /  0mm 0 W/m2
02:29 32.3 °F /  0.2 °C 31 °F /  -0.6 °C 29.88in /  1011.7hPa NNE 0.9mph /  1.4km/h 5mph /  8km/h 95% 0.00in /  0mm 0 W/m2
02:34 32.3 °F /  0.2 °C 31 °F /  -0.6 °C 29.87in /  1011.4hPa Calm   5mph /  8km/h 95% 0.00in /  0mm 0 W/m2
02:39 32.4 °F /  0.2 °C 31.1 °F /  -0.5 °C 29.87in /  1011.4hPa NNE 0.4mph /  0.6km/h 3mph /  4.8km/h 95% 0.00in /  0mm 0 W/m2
02:44 32.5 °F /  0.3 °C 31.2 °F /  -0.4 °C 29.87in /  1011.4hPa NNW 0.7mph /  1.1km/h 5mph /  8km/h 95% 0.00in /  0mm 0 W/m2
02:49 32.5 °F /  0.3 °C 31.2 °F /  -0.4 °C 29.87in /  1011.4hPa NNW 1.9mph /  3.1km/h 5mph /  8km/h 95% 0.00in /  0mm 0 W/m2
02:54 32.5 °F /  0.3 °C 31.2 °F /  -0.4 °C 29.87in /  1011.4hPa NNW 2.1mph /  3.4km/h 5mph /  8km/h 95% 0.00in /  0mm 0 W/m2
02:59 32.6 °F /  0.3 °C 31.3 °F /  -0.4 °C 29.86in /  1011.1hPa Calm   5mph /  8km/h 95% 0.00in /  0mm 0 W/m2
03:04 32.6 °F /  0.3 °C 31.4 °F /  -0.3 °C 29.85in /  1010.7hPa North 1.6mph /  2.6km/h 5mph /  8km/h 95% 0.00in /  0mm 0 W/m2
03:09 32.7 °F /  0.4 °C 31.4 °F /  -0.3 °C 29.85in /  1010.7hPa NNW 0.1mph /  0.2km/h 5mph /  8km/h 95% 0.00in /  0mm 0 W/m2
03:14 32.8 °F /  0.4 °C 31.5 °F /  -0.3 °C 29.84in /  1010.4hPa Calm   5mph /  8km/h 95% 0.00in /  0mm 0 W/m2
03:19 32.8 °F /  0.4 °C 31.6 °F /  -0.2 °C 29.83in /  1010hPa NNW 0.2mph /  0.3km/h 5mph /  8km/h 95% 0.00in /  0mm 0 W/m2
03:24 32.9 °F /  0.5 °C 31.6 °F /  -0.2 °C 29.83in /  1010hPa Calm   5mph /  8km/h 95% 0.00in /  0mm 0 W/m2
03:29 33 °F /  0.6 °C 31.7 °F /  -0.2 °C 29.83in /  1010hPa Calm   5mph /  8km/h 95% 0.00in /  0mm 0 W/m2
03:34 33.1 °F /  0.6 °C 31.8 °F /  -0.1 °C 29.82in /  1009.7hPa Calm   5mph /  8km/h 95% 0.00in /  0mm 0 W/m2
03:39 33.1 °F /  0.6 °C 31.9 °F /  -0.1 °C 29.80in /  1009hPa Calm   1mph /  1.6km/h 95% 0.00in /  0mm 0 W/m2
03:44 33.2 °F /  0.7 °C 31.9 °F /  -0.1 °C 29.80in /  1009hPa NNW 1mph /  1.6km/h 3mph /  4.8km/h 95% 0.00in /  0mm 0 W/m2
03:49 33.2 °F /  0.7 °C 31.9 °F /  -0.1 °C 29.80in /  1009hPa NNW 1.1mph /  1.8km/h 5mph /  8km/h 95% 0.00in /  0mm 0 W/m2
03:54 33.3 °F /  0.7 °C 32 °F /  0 °C 29.80in /  1009hPa NNW 1.2mph /  1.9km/h 5mph /  8km/h 95% 0.00in /  0mm 0 W/m2
03:59 33.3 °F /  0.7 °C 32 °F /  0 °C 29.79in /  1008.7hPa NNW 1.5mph /  2.4km/h 5mph /  8km/h 95% 0.00in /  0mm 0 W/m2
04:04 33.4 °F /  0.8 °C 32.1 °F /  0.1 °C 29.78in /  1008.4hPa NNW 1.7mph /  2.7km/h 2mph /  3.2km/h 95% 0.00in /  0mm 0 W/m2
04:09 33.4 °F /  0.8 °C 32.1 °F /  0.1 °C 29.79in /  1008.7hPa NNW 1mph /  1.6km/h 4mph /  6.4km/h 95% 0.00in /  0mm 0 W/m2
04:14 33.4 °F /  0.8 °C 32.1 °F /  0.1 °C 29.78in /  1008.4hPa NNW 0.3mph /  0.5km/h 4mph /  6.4km/h 95% 0.00in /  0mm 0 W/m2
04:19 33.5 °F /  0.8 °C 32.2 °F /  0.1 °C 29.77in /  1008hPa Calm   4mph /  6.4km/h 95% 0.00in /  0mm 0 W/m2
04:24 33.5 °F /  0.8 °C 32.2 °F /  0.1 °C 29.77in /  1008hPa Calm   4mph /  6.4km/h 95% 0.00in /  0mm 0 W/m2
04:29 33.5 °F /  0.8 °C 32.3 °F /  0.2 °C 29.77in /  1008hPa Calm   4mph /  6.4km/h 95% 0.00in /  0mm 0 W/m2
04:34 33.6 °F /  0.9 °C 32.3 °F /  0.2 °C 29.77in /  1008hPa NNW 0.2mph /  0.3km/h 4mph /  6.4km/h 95% 0.00in /  0mm 0 W/m2
04:39 33.6 °F /  0.9 °C 32.3 °F /  0.2 °C 29.77in /  1008hPa NNW 0.3mph /  0.5km/h 4mph /  6.4km/h 95% 0.00in /  0mm 0 W/m2
04:44 33.7 °F /  0.9 °C 32.4 °F /  0.2 °C 29.76in /  1007.7hPa Calm   4mph /  6.4km/h 95% 0.00in /  0mm 0 W/m2
04:49 33.7 °F /  0.9 °C 32.4 °F /  0.2 °C 29.75in /  1007.3hPa NNW 0.1mph /  0.2km/h 4mph /  6.4km/h 95% 0.05in /  1.27mm 0 W/m2
04:54 33.7 °F /  0.9 °C 32.4 °F /  0.2 °C 29.75in /  1007.3hPa NNW 0.2mph /  0.3km/h 4mph /  6.4km/h 95% 0.06in /  1.52mm 0 W/m2
04:58 33.8 °F /  1 °C 32.5 °F /  0.3 °C 29.74in /  1007hPa Calm   4mph /  6.4km/h 95% 0.09in /  2.29mm 0 W/m2
Hartford County Weather
Compliments of Weather Underground - 2 mb